createdAt,value
2019-05-13T00:00:54.976Z,7.50
2019-05-13T00:03:36.995Z,7.40
2019-05-13T00:06:18.795Z,7.30
2019-05-13T00:09:00.675Z,7.30
2019-05-13T00:11:43.773Z,7.30
2019-05-13T00:14:25.535Z,7.40
2019-05-13T00:17:06.789Z,7.40
2019-05-13T00:19:47.933Z,7.30
2019-05-13T00:22:29.956Z,7.30
2019-05-13T00:25:14.274Z,7.30
2019-05-13T00:27:54.732Z,7.30
2019-05-13T00:30:36.060Z,7.40
2019-05-13T00:33:17.932Z,7.30
2019-05-13T00:35:59.117Z,7.10
2019-05-13T00:38:41.152Z,7.00
2019-05-13T00:41:24.458Z,7.00
2019-05-13T00:44:05.891Z,7.10
2019-05-13T00:46:47.903Z,7.10
2019-05-13T00:49:29.658Z,7.10
2019-05-13T00:52:11.582Z,7.10
2019-05-13T00:54:53.012Z,7.00
2019-05-13T00:57:34.223Z,7.00
2019-05-13T01:00:15.969Z,7.00
2019-05-13T01:02:57.221Z,7.10
2019-05-13T01:05:38.449Z,7.10
2019-05-13T01:08:20.394Z,6.90
2019-05-13T01:11:04.269Z,6.70
2019-05-13T01:13:43.890Z,6.60
2019-05-13T01:16:25.051Z,6.40
2019-05-13T01:19:06.807Z,6.40
2019-05-13T01:21:51.299Z,6.30
2019-05-13T01:24:33.760Z,6.50
2019-05-13T01:27:15.309Z,6.40
2019-05-13T01:29:56.466Z,6.20
2019-05-13T01:32:38.507Z,6.20
2019-05-13T01:35:19.757Z,6.10
2019-05-13T01:38:04.246Z,6.10
2019-05-13T01:40:44.896Z,6.00
2019-05-13T01:43:26.796Z,6.00
2019-05-13T01:46:07.983Z,6.00
2019-05-13T01:48:50.012Z,6.00
2019-05-13T01:51:33.476Z,6.00
2019-05-13T01:54:15.426Z,6.10
2019-05-13T01:56:57.236Z,6.00
2019-05-13T01:59:39.017Z,6.10
2019-05-13T02:02:20.820Z,6.10
2019-05-13T02:05:03.955Z,6.30
2019-05-13T02:07:56.867Z,6.30
2019-05-13T02:10:47.979Z,6.50
2019-05-13T02:13:29.366Z,6.70
2019-05-13T02:16:11.012Z,6.90
2019-05-13T02:18:53.675Z,6.90
2019-05-13T02:21:35.332Z,7.00
2019-05-13T02:24:17.305Z,7.00
2019-05-13T02:26:58.968Z,7.10
2019-05-13T02:29:40.942Z,7.10
2019-05-13T02:32:23.465Z,7.20
2019-05-13T02:35:04.884Z,7.20
2019-05-13T02:37:44.711Z,7.20
2019-05-13T02:40:33.467Z,7.20
2019-05-13T02:43:15.378Z,7.00
2019-05-13T02:45:56.791Z,7.00
2019-05-13T02:48:36.529Z,6.90
2019-05-13T02:51:25.225Z,6.80
2019-05-13T02:54:06.925Z,6.70
2019-05-13T02:56:48.947Z,6.70
2019-05-13T02:59:33.569Z,6.80
2019-05-13T03:02:13.759Z,6.80
2019-05-13T03:04:55.013Z,6.90
2019-05-13T03:07:36.623Z,6.90
2019-05-13T03:10:18.509Z,6.90
2019-05-13T03:13:03.350Z,6.80
2019-05-13T03:15:45.096Z,6.60
2019-05-13T03:18:26.784Z,6.50
2019-05-13T03:21:12.411Z,6.40
2019-05-13T03:23:52.738Z,6.30
2019-05-13T03:26:34.333Z,6.20
2019-05-13T03:29:16.041Z,6.10
2019-05-13T03:31:57.798Z,6.00
2019-05-13T03:34:44.703Z,6.00
2019-05-13T03:37:26.112Z,5.90
2019-05-13T03:40:05.519Z,5.80
2019-05-13T03:42:47.361Z,5.80
2019-05-13T03:45:28.974Z,5.80
2019-05-13T03:48:13.319Z,5.70
2019-05-13T03:50:54.882Z,5.70
2019-05-13T03:53:36.488Z,5.70
2019-05-13T03:56:18.101Z,5.60
2019-05-13T03:59:02.720Z,5.60
2019-05-13T04:01:43.405Z,5.60
2019-05-13T04:04:12.944Z,5.60
2019-05-13T04:07:02.705Z,5.50
2019-05-13T04:10:03.971Z,5.50
2019-05-13T04:12:45.103Z,5.50
2019-05-13T04:15:26.390Z,5.50
2019-05-13T04:18:08.147Z,5.50
2019-05-13T04:20:52.720Z,5.50
2019-05-13T04:23:33.532Z,5.60
2019-05-13T04:26:15.400Z,5.70
2019-05-13T04:28:56.777Z,5.70
2019-05-13T04:31:42.207Z,5.70
2019-05-13T04:34:23.098Z,5.80
2019-05-13T04:37:05.137Z,5.90
2019-05-13T04:39:51.738Z,5.90
2019-05-13T04:42:33.115Z,6.00
2019-05-13T04:45:13.694Z,6.00
2019-05-13T04:47:55.364Z,6.00
2019-05-13T04:50:37.025Z,6.00
2019-05-13T04:53:22.374Z,6.00
2019-05-13T04:56:13.694Z,6.30
2019-05-13T04:59:02.768Z,6.40
2019-05-13T05:01:51.738Z,6.40
2019-05-13T05:04:30.554Z,6.30
2019-05-13T05:07:13.261Z,6.30
2019-05-13T05:10:15.865Z,6.30
2019-05-13T05:12:38.393Z,6.30
2019-05-13T05:15:23.232Z,6.50
2019-05-13T05:18:04.314Z,6.50
2019-05-13T05:20:46.516Z,6.60
2019-05-13T05:23:27.968Z,6.50
2019-05-13T05:26:11.883Z,6.40
2019-05-13T05:28:53.140Z,6.50
2019-05-13T05:31:34.687Z,6.70
2019-05-13T05:34:16.702Z,6.80
2019-05-13T05:37:01.253Z,6.90
2019-05-13T05:39:31.552Z,7.00
2019-05-13T05:45:27.839Z,7.10
2019-05-13T05:48:09.138Z,7.10
2019-05-13T05:50:51.586Z,7.30
2019-05-13T05:53:33.362Z,7.40
2019-05-13T05:56:18.175Z,7.60
2019-05-13T05:59:02.738Z,7.70
2019-05-13T06:01:43.120Z,7.80
2019-05-13T06:04:25.118Z,7.90
2019-05-13T06:07:06.840Z,8.00
2019-05-13T06:09:48.616Z,8.00
2019-05-13T06:12:31.507Z,8.10
2019-05-13T06:15:12.881Z,8.10
2019-05-13T06:17:54.123Z,8.20
2019-05-13T06:20:35.395Z,8.20
2019-05-13T06:23:16.685Z,8.50
2019-05-13T06:25:58.681Z,8.50
2019-05-13T06:28:41.471Z,8.60
2019-05-13T06:31:21.743Z,8.60
2019-05-13T06:37:38.235Z,8.80
2019-05-13T06:40:21.434Z,8.80
2019-05-13T06:43:03.246Z,8.70
2019-05-13T06:45:44.420Z,8.70
2019-05-13T06:48:25.548Z,8.80
2019-05-13T06:51:07.492Z,8.80
2019-05-13T06:53:51.777Z,8.90
2019-05-13T06:56:33.110Z,9.10
2019-05-13T06:59:12.807Z,9.20
2019-05-13T07:02:02.292Z,9.20
2019-05-13T07:05:04.038Z,9.30
2019-05-13T07:07:45.581Z,9.40
2019-05-13T07:10:27.592Z,9.40
2019-05-13T07:13:11.413Z,9.50
2019-05-13T07:15:53.084Z,9.60
2019-05-13T07:18:34.399Z,9.80
2019-05-13T07:21:16.289Z,9.90
2019-05-13T07:23:58.176Z,10.00
2019-05-13T07:26:41.921Z,10.00
2019-05-13T07:29:24.228Z,10.10
2019-05-13T07:32:05.952Z,10.10
2019-05-13T07:34:47.465Z,10.30
2019-05-13T07:37:28.693Z,10.30
2019-05-13T07:40:11.577Z,10.50
2019-05-13T07:42:53.534Z,10.60
2019-05-13T07:45:35.525Z,10.80
2019-05-13T07:48:21.002Z,10.70
2019-05-13T07:51:03.886Z,10.80
2019-05-13T07:53:42.984Z,11.00
2019-05-13T07:56:25.004Z,11.10
2019-05-13T07:59:06.643Z,11.00
2019-05-13T08:01:48.382Z,11.20
2019-05-13T08:04:33.057Z,11.30
2019-05-13T08:07:16.729Z,11.50
2019-05-13T08:10:00.916Z,11.60
2019-05-13T08:12:42.263Z,11.90
2019-05-13T08:15:24.217Z,12.20
2019-05-13T08:18:05.454Z,12.70
2019-05-13T08:20:46.789Z,12.90
2019-05-13T08:23:28.245Z,13.20
2019-05-13T08:26:09.510Z,13.50
2019-05-13T08:29:00.306Z,13.90
2019-05-13T08:31:35.265Z,14.00
2019-05-13T08:34:18.255Z,14.30
2019-05-13T08:37:02.779Z,14.50
2019-05-13T08:39:43.253Z,14.90
2019-05-13T08:42:25.349Z,15.00
2019-05-13T08:45:07.175Z,15.20
2019-05-13T08:47:51.124Z,15.20
2019-05-13T08:50:32.443Z,15.10
2019-05-13T08:53:13.924Z,15.20
2019-05-13T08:55:55.849Z,15.10
2019-05-13T08:58:37.729Z,14.90
2019-05-13T09:01:17.430Z,14.70
2019-05-13T09:04:06.139Z,14.70
2019-05-13T09:06:47.632Z,14.80
2019-05-13T09:09:31.322Z,14.90
2019-05-13T09:12:27.272Z,14.80
2019-05-13T09:14:55.538Z,14.80
2019-05-13T09:17:37.215Z,14.80
2019-05-13T09:20:18.557Z,14.80
2019-05-13T09:23:01.929Z,15.00
2019-05-13T09:25:43.482Z,15.30
2019-05-13T09:28:24.913Z,15.50
2019-05-13T09:31:06.644Z,15.60
2019-05-13T09:33:47.842Z,15.70
2019-05-13T09:36:28.995Z,15.90
2019-05-13T09:39:12.594Z,16.10
2019-05-13T09:41:56.122Z,16.30
2019-05-13T09:44:37.995Z,16.50
2019-05-13T09:47:21.515Z,16.60
2019-05-13T09:50:04.633Z,16.50
2019-05-13T09:52:46.333Z,16.60
2019-05-13T09:55:29.278Z,16.60
2019-05-13T09:58:11.995Z,16.50
2019-05-13T10:00:53.456Z,16.40
2019-05-13T10:03:53.842Z,16.30
2019-05-13T10:06:42.287Z,16.40
2019-05-13T10:09:23.913Z,16.40
2019-05-13T10:12:05.974Z,16.60
2019-05-13T10:14:47.759Z,16.70
2019-05-13T10:17:31.864Z,16.90
2019-05-13T10:20:15.384Z,17.10
2019-05-13T10:22:56.466Z,17.10
2019-05-13T10:25:38.468Z,17.20
2019-05-13T10:28:21.925Z,17.30
2019-05-13T10:31:03.655Z,17.60
2019-05-13T10:33:51.977Z,17.70
2019-05-13T10:36:34.001Z,17.90
2019-05-13T10:39:16.985Z,17.90
2019-05-13T10:41:58.467Z,17.80
2019-05-13T10:44:42.215Z,17.60
2019-05-13T10:47:24.076Z,17.70
2019-05-13T10:50:06.021Z,17.90
2019-05-13T10:52:47.979Z,18.00
2019-05-13T10:55:32.221Z,18.10
2019-05-13T10:58:13.797Z,18.20
2019-05-13T11:03:36.149Z,18.30
2019-05-13T11:06:17.788Z,18.30
2019-05-13T11:09:02.072Z,18.60
2019-05-13T11:11:42.936Z,18.80
2019-05-13T11:14:24.438Z,19.00
2019-05-13T11:17:06.471Z,19.90
2019-05-13T11:19:48.334Z,22.20
2019-05-13T11:22:32.135Z,24.10
2019-05-13T11:25:12.962Z,26.20
2019-05-13T11:27:58.303Z,27.30
2019-05-13T11:30:38.013Z,28.50
2019-05-13T11:33:21.565Z,28.50
2019-05-13T11:36:03.657Z,29.60
2019-05-13T11:38:45.364Z,29.30
2019-05-13T11:41:26.759Z,30.00
2019-05-13T11:44:16.183Z,30.10
2019-05-13T11:46:53.447Z,29.60
2019-05-13T11:49:36.064Z,29.30
2019-05-13T11:52:17.431Z,28.50
2019-05-13T11:55:01.792Z,28.90
2019-05-13T11:57:44.586Z,28.50
2019-05-13T12:00:27.176Z,28.60
2019-05-13T12:03:09.684Z,29.70
2019-05-13T12:05:53.796Z,30.10
2019-05-13T12:08:39.044Z,29.70
2019-05-13T12:11:22.389Z,29.60
2019-05-13T12:13:52.752Z,27.60
2019-05-13T12:16:48.908Z,28.10
2019-05-13T12:19:31.478Z,28.20
2019-05-13T12:22:13.549Z,29.80
2019-05-13T12:24:54.990Z,30.10
2019-05-13T12:27:36.746Z,30.50
2019-05-13T12:30:17.985Z,29.60
2019-05-13T12:33:02.564Z,30.60
2019-05-13T12:35:43.671Z,31.10
2019-05-13T12:38:26.314Z,31.60
2019-05-13T12:41:08.348Z,30.60
2019-05-13T12:43:53.611Z,29.80
2019-05-13T12:46:33.906Z,29.90
2019-05-13T12:49:15.809Z,31.00
2019-05-13T12:52:03.567Z,32.30
2019-05-13T12:54:43.997Z,32.30
2019-05-13T12:57:27.574Z,30.50
2019-05-13T13:00:12.462Z,29.90
2019-05-13T13:02:53.718Z,30.50
2019-05-13T13:05:37.177Z,30.90
2019-05-13T13:11:01.382Z,30.70
2019-05-13T13:13:57.834Z,31.70
2019-05-13T13:16:15.708Z,32.70
2019-05-13T13:19:05.087Z,33.50
2019-05-13T13:21:47.939Z,33.30
2019-05-13T13:24:31.837Z,32.80
2019-05-13T13:27:22.609Z,33.20
2019-05-13T13:30:03.121Z,32.60
2019-05-13T13:32:45.341Z,32.20
2019-05-13T13:35:25.630Z,32.40
2019-05-13T13:38:08.121Z,31.10
2019-05-13T13:40:53.444Z,31.60
2019-05-13T13:43:36.859Z,32.00
2019-05-13T13:46:33.767Z,32.40
2019-05-13T13:49:02.257Z,32.80
2019-05-13T13:51:45.201Z,33.40
2019-05-13T13:54:27.900Z,32.80
2019-05-13T13:57:13.394Z,32.80
2019-05-13T14:00:20.843Z,32.80
2019-05-13T14:02:38.277Z,31.80
2019-05-13T14:05:23.642Z,31.90
2019-05-13T14:08:04.601Z,31.70
2019-05-13T14:10:46.752Z,32.10
2019-05-13T14:13:28.780Z,31.00
2019-05-13T14:16:24.657Z,32.50
2019-05-13T14:18:54.859Z,33.40
2019-05-13T14:21:37.716Z,32.90
2019-05-13T14:24:21.642Z,30.10
2019-05-13T14:27:03.802Z,29.80
2019-05-13T14:29:49.225Z,31.20
2019-05-13T14:32:32.096Z,32.50
2019-05-13T14:35:13.923Z,33.40
2019-05-13T14:37:55.666Z,33.50
2019-05-13T14:40:38.016Z,32.80
2019-05-13T14:43:22.961Z,32.80
2019-05-13T14:46:05.369Z,33.50
2019-05-13T14:48:47.495Z,33.90
2019-05-13T14:51:29.437Z,34.00
2019-05-13T14:54:11.226Z,34.20
2019-05-13T14:56:53.947Z,35.40
2019-05-13T14:59:36.334Z,36.40
2019-05-13T15:05:02.439Z,34.80
2019-05-13T15:07:43.712Z,34.50
2019-05-13T15:10:31.499Z,35.10
2019-05-13T15:13:15.710Z,35.20
2019-05-13T15:15:58.113Z,35.00
2019-05-13T15:18:41.606Z,34.50
2019-05-13T15:21:25.755Z,33.50
2019-05-13T15:24:08.224Z,34.00
2019-05-13T15:26:51.728Z,34.60
2019-05-13T15:29:34.326Z,35.10
2019-05-13T15:32:17.064Z,34.90
2019-05-13T15:35:01.885Z,34.70
2019-05-13T15:37:43.472Z,33.90
2019-05-13T15:40:25.320Z,32.40
2019-05-13T15:43:07.460Z,32.70
2019-05-13T15:45:51.315Z,33.30
2019-05-13T15:48:33.411Z,32.50
2019-05-13T15:51:15.231Z,30.00
2019-05-13T15:53:57.473Z,31.20
2019-05-13T15:56:40.262Z,32.50
2019-05-13T15:59:22.311Z,32.60
2019-05-13T16:02:04.263Z,32.70
2019-05-13T16:04:48.797Z,33.40
2019-05-13T16:07:37.619Z,33.50
2019-05-13T16:10:20.191Z,34.10
2019-05-13T16:12:51.799Z,33.00
2019-05-13T16:15:46.649Z,33.60
2019-05-13T16:18:31.442Z,32.70
2019-05-13T16:21:13.310Z,32.40
2019-05-13T16:23:56.110Z,32.90
2019-05-13T16:26:38.390Z,33.60
2019-05-13T16:29:22.467Z,34.30
2019-05-13T16:32:11.839Z,33.80
2019-05-13T16:34:53.737Z,32.70
2019-05-13T16:37:36.322Z,32.00
2019-05-13T16:40:19.092Z,31.70
2019-05-13T16:43:01.428Z,31.70
2019-05-13T16:45:44.208Z,31.90
2019-05-13T16:48:26.136Z,32.80
2019-05-13T16:51:08.224Z,32.80
2019-05-13T16:53:48.797Z,32.30
2019-05-13T16:56:38.205Z,30.00
2019-05-13T16:59:21.122Z,30.50
2019-05-13T17:04:46.223Z,31.00
2019-05-13T17:07:28.228Z,31.60
2019-05-13T17:10:12.531Z,30.80
2019-05-13T17:12:55.489Z,29.00
2019-05-13T17:15:37.361Z,26.70
2019-05-13T17:18:21.729Z,25.50
2019-05-13T17:21:01.976Z,24.20
2019-05-13T17:23:44.033Z,23.60
2019-05-13T17:26:25.602Z,23.40
2019-05-13T17:29:07.781Z,22.60
2019-05-13T17:31:51.371Z,21.60
2019-05-13T17:34:32.441Z,20.90
2019-05-13T17:37:13.648Z,20.00
2019-05-13T17:39:55.753Z,19.70
2019-05-13T17:42:37.471Z,19.50
2019-05-13T17:45:18.596Z,19.40
2019-05-13T17:48:01.122Z,19.20
2019-05-13T17:50:42.995Z,19.10
2019-05-13T17:53:27.298Z,18.90
2019-05-13T17:56:11.092Z,18.70
2019-05-13T17:58:52.308Z,18.60
2019-05-13T18:01:33.595Z,18.50
2019-05-13T18:04:15.477Z,18.30
2019-05-13T18:06:58.707Z,18.20
2019-05-13T18:09:42.367Z,18.10
2019-05-13T18:12:23.778Z,18.00
2019-05-13T18:15:05.108Z,17.90
2019-05-13T18:17:47.235Z,17.80
2019-05-13T18:20:29.053Z,17.60
2019-05-13T18:23:12.120Z,17.50
2019-05-13T18:25:53.953Z,17.40
2019-05-13T18:28:35.905Z,17.30
2019-05-13T18:31:17.357Z,17.10
2019-05-13T18:34:01.430Z,17.00
2019-05-13T18:36:43.055Z,16.90
2019-05-13T18:39:24.741Z,16.90
2019-05-13T18:42:06.269Z,16.80
2019-05-13T18:44:48.313Z,16.70
2019-05-13T18:47:31.631Z,16.50
2019-05-13T18:50:13.296Z,16.40
2019-05-13T18:52:54.862Z,16.30
2019-05-13T18:55:36.927Z,16.20
2019-05-13T18:58:18.660Z,16.20
2019-05-13T19:01:01.309Z,16.10
2019-05-13T19:03:43.069Z,16.00
2019-05-13T19:06:24.759Z,16.00
2019-05-13T19:09:05.994Z,15.90
2019-05-13T19:11:47.814Z,15.90
2019-05-13T19:14:32.589Z,15.80
2019-05-13T19:17:14.524Z,15.70
2019-05-13T19:19:56.439Z,15.70
2019-05-13T19:22:37.650Z,15.60
2019-05-13T19:25:19.611Z,15.40
2019-05-13T19:28:02.378Z,15.20
2019-05-13T19:30:44.131Z,15.10
2019-05-13T19:33:25.463Z,14.90
2019-05-13T19:36:07.012Z,14.80
2019-05-13T19:38:48.698Z,14.70
2019-05-13T19:41:31.530Z,14.50
2019-05-13T19:44:13.627Z,14.40
2019-05-13T19:46:57.673Z,14.30
2019-05-13T19:49:41.665Z,14.20
2019-05-13T19:52:22.096Z,14.20
2019-05-13T19:55:04.188Z,14.20
2019-05-13T19:57:46.203Z,14.20
2019-05-13T20:00:27.344Z,14.10
2019-05-13T20:03:11.535Z,14.00
2019-05-13T20:05:52.410Z,14.00
2019-05-13T20:08:34.600Z,13.90
2019-05-13T20:11:16.617Z,13.80
2019-05-13T20:14:01.154Z,13.60
2019-05-13T20:16:41.865Z,13.70
2019-05-13T20:19:23.357Z,13.60
2019-05-13T20:22:04.900Z,13.70
2019-05-13T20:24:47.045Z,13.60
2019-05-13T20:27:28.854Z,13.50
2019-05-13T20:30:12.346Z,13.40
2019-05-13T20:32:53.648Z,13.50
2019-05-13T20:35:35.654Z,13.30
2019-05-13T20:38:17.516Z,13.30
2019-05-13T20:41:01.364Z,13.20
2019-05-13T20:46:23.309Z,13.00
2019-05-13T20:49:04.646Z,13.00
2019-05-13T20:51:46.622Z,12.90
2019-05-13T20:54:31.196Z,12.90
2019-05-13T20:57:11.666Z,12.90
2019-05-13T20:59:53.572Z,12.90
2019-05-13T21:02:35.205Z,12.80
2019-05-13T21:05:16.791Z,12.70
2019-05-13T21:07:58.770Z,12.60
2019-05-13T21:10:42.153Z,12.50
2019-05-13T21:13:23.884Z,12.30
2019-05-13T21:16:06.942Z,12.10
2019-05-13T21:18:48.797Z,11.80
2019-05-13T21:21:31.111Z,11.70
2019-05-13T21:24:12.994Z,11.60
2019-05-13T21:26:54.885Z,11.50
2019-05-13T21:29:36.601Z,11.60
2019-05-13T21:32:18.074Z,11.60
2019-05-13T21:35:01.628Z,11.40
2019-05-13T21:37:42.266Z,11.30
2019-05-13T21:40:23.450Z,11.10
2019-05-13T21:43:05.054Z,11.10
2019-05-13T21:45:48.837Z,10.90
2019-05-13T21:48:32.307Z,10.80
2019-05-13T21:51:13.868Z,10.80
2019-05-13T21:53:53.546Z,10.60
2019-05-13T21:56:42.799Z,10.60
2019-05-13T21:59:31.889Z,10.50
2019-05-13T22:02:13.679Z,10.50
2019-05-13T22:04:55.010Z,10.40
2019-05-13T22:07:36.976Z,10.50
2019-05-13T22:10:18.810Z,10.40
2019-05-13T22:13:01.491Z,10.40
2019-05-13T22:15:41.649Z,10.30
2019-05-13T22:18:31.341Z,10.20
2019-05-13T22:21:32.543Z,10.10
2019-05-13T22:24:14.647Z,10.00
2019-05-13T22:26:55.879Z,10.00
2019-05-13T22:29:37.105Z,9.90
2019-05-13T22:32:18.851Z,9.80
2019-05-13T22:35:01.886Z,9.60
2019-05-13T22:37:43.134Z,9.60
2019-05-13T22:40:25.010Z,9.50
2019-05-13T22:43:06.860Z,9.40
2019-05-13T22:45:47.981Z,9.40
2019-05-13T22:48:31.795Z,9.40
2019-05-13T22:51:13.222Z,9.30
2019-05-13T22:53:55.029Z,9.20
2019-05-13T22:56:41.199Z,9.10
2019-05-13T22:59:23.394Z,9.10
2019-05-13T23:02:05.305Z,9.10
2019-05-13T23:04:46.951Z,9.10
2019-05-13T23:07:28.626Z,9.00
2019-05-13T23:10:11.794Z,9.00
2019-05-13T23:12:53.252Z,8.90
2019-05-13T23:15:35.024Z,8.80
2019-05-13T23:18:16.691Z,8.80
2019-05-13T23:20:58.742Z,8.60
2019-05-13T23:23:40.046Z,8.60
2019-05-13T23:26:21.989Z,8.60
2019-05-13T23:29:03.653Z,8.60
2019-05-13T23:31:45.506Z,8.60
2019-05-13T23:34:26.856Z,8.80
2019-05-13T23:37:08.684Z,8.80
2019-05-13T23:39:51.852Z,8.70
2019-05-13T23:42:32.874Z,8.60
2019-05-13T23:45:16.004Z,8.60
2019-05-13T23:47:57.963Z,8.70
2019-05-13T23:50:41.544Z,8.90
2019-05-13T23:53:22.979Z,9.00
2019-05-13T23:56:05.118Z,9.00
2019-05-13T23:58:47.143Z,8.90
